createdAt,value
2018-10-16T00:01:28.418Z,12.10
2018-10-16T00:03:57.235Z,12.00
2018-10-16T00:06:26.063Z,12.00
2018-10-16T00:08:54.879Z,12.00
2018-10-16T00:11:23.722Z,12.00
2018-10-16T00:13:52.526Z,12.00
2018-10-16T00:16:21.350Z,12.00
2018-10-16T00:18:50.160Z,11.90
2018-10-16T00:21:18.978Z,11.90
2018-10-16T00:23:47.812Z,11.80
2018-10-16T00:26:16.662Z,11.80
2018-10-16T00:28:45.503Z,11.80
2018-10-16T00:31:14.391Z,11.70
2018-10-16T00:33:43.219Z,11.60
2018-10-16T00:36:12.063Z,11.60
2018-10-16T00:38:40.882Z,11.40
2018-10-16T00:41:09.694Z,11.30
2018-10-16T00:43:38.615Z,11.20
2018-10-16T00:46:13.795Z,11.20
2018-10-16T00:48:42.567Z,11.20
2018-10-16T00:51:11.479Z,11.20
2018-10-16T00:53:40.338Z,11.30
2018-10-16T00:56:16.162Z,11.20
2018-10-16T00:58:45.075Z,11.20
2018-10-16T01:01:13.910Z,11.20
2018-10-16T01:03:42.704Z,11.20
2018-10-16T01:06:13.583Z,11.20
2018-10-16T01:08:42.407Z,11.20
2018-10-16T01:11:11.296Z,11.20
2018-10-16T01:13:40.156Z,11.20
2018-10-16T01:16:09.023Z,11.20
2018-10-16T01:18:37.835Z,11.20
2018-10-16T01:21:06.710Z,11.20
2018-10-16T01:23:35.633Z,11.20
2018-10-16T01:26:04.467Z,11.20
2018-10-16T01:28:47.774Z,11.10
2018-10-16T01:31:16.583Z,11.10
2018-10-16T01:33:45.350Z,11.10
2018-10-16T01:36:14.175Z,11.10
2018-10-16T01:38:43.051Z,11.10
2018-10-16T01:41:11.898Z,11.10
2018-10-16T01:43:40.658Z,11.10
2018-10-16T01:46:09.859Z,11.10
2018-10-16T01:48:38.838Z,11.10
2018-10-16T01:51:08.022Z,11.10
2018-10-16T01:53:36.866Z,11.10
2018-10-16T01:56:05.878Z,11.00
2018-10-16T01:58:34.707Z,11.00
2018-10-16T02:01:03.538Z,11.00
2018-10-16T02:03:32.355Z,11.00
2018-10-16T02:06:01.144Z,11.00
2018-10-16T02:08:30.010Z,11.00
2018-10-16T02:10:58.776Z,11.00
2018-10-16T02:13:27.600Z,10.90
2018-10-16T02:15:56.950Z,10.90
2018-10-16T02:18:25.791Z,10.90
2018-10-16T02:20:54.702Z,10.90
2018-10-16T02:23:23.514Z,10.80
2018-10-16T02:26:11.278Z,10.80
2018-10-16T02:28:40.078Z,10.70
2018-10-16T02:31:08.912Z,10.70
2018-10-16T02:33:37.728Z,10.50
2018-10-16T02:36:06.787Z,10.50
2018-10-16T02:38:35.603Z,10.40
2018-10-16T02:41:04.549Z,10.30
2018-10-16T02:43:33.352Z,10.20
2018-10-16T02:46:02.123Z,10.20
2018-10-16T02:48:30.918Z,10.30
2018-10-16T02:50:59.727Z,10.30
2018-10-16T02:53:42.103Z,10.30
2018-10-16T02:56:10.999Z,10.30
2018-10-16T02:58:39.828Z,10.30
2018-10-16T03:01:09.298Z,10.30
2018-10-16T03:03:39.405Z,10.30
2018-10-16T03:06:08.222Z,10.30
2018-10-16T03:08:37.799Z,10.30
2018-10-16T03:11:06.655Z,10.30
2018-10-16T03:13:35.458Z,10.30
2018-10-16T03:16:04.372Z,10.30
2018-10-16T03:18:33.203Z,10.30
2018-10-16T03:21:02.040Z,10.40
2018-10-16T03:23:30.886Z,10.40
2018-10-16T03:25:59.738Z,10.40
2018-10-16T03:28:28.570Z,10.40
2018-10-16T03:30:57.437Z,10.40
2018-10-16T03:33:26.292Z,10.40
2018-10-16T03:35:55.118Z,10.30
2018-10-16T03:38:23.999Z,10.30
2018-10-16T03:40:52.814Z,10.30
2018-10-16T03:43:21.647Z,10.20
2018-10-16T03:45:50.419Z,10.20
2018-10-16T03:48:19.295Z,10.10
2018-10-16T03:50:48.167Z,10.10
2018-10-16T03:53:17.001Z,10.10
2018-10-16T03:55:45.766Z,10.10
2018-10-16T03:58:14.612Z,10.10
2018-10-16T04:00:48.411Z,10.00
2018-10-16T04:03:17.209Z,10.00
2018-10-16T04:05:45.999Z,10.00
2018-10-16T04:08:14.803Z,10.00
2018-10-16T04:10:43.623Z,10.00
2018-10-16T04:13:12.462Z,10.00
2018-10-16T04:15:41.315Z,10.00
2018-10-16T04:18:10.139Z,10.00
2018-10-16T04:20:38.987Z,10.00
2018-10-16T04:23:07.775Z,10.00
2018-10-16T04:25:36.626Z,10.00
2018-10-16T04:28:05.902Z,10.00
2018-10-16T04:30:45.313Z,10.00
2018-10-16T04:33:14.144Z,10.00
2018-10-16T04:35:42.971Z,9.90
2018-10-16T04:38:11.847Z,9.80
2018-10-16T04:40:40.697Z,9.80
2018-10-16T04:43:09.511Z,9.80
2018-10-16T04:45:38.334Z,9.80
2018-10-16T04:48:07.279Z,9.80
2018-10-16T04:50:36.110Z,9.80
2018-10-16T04:53:05.184Z,9.70
2018-10-16T04:55:34.011Z,9.70
2018-10-16T04:58:02.864Z,9.70
2018-10-16T05:00:31.677Z,9.70
2018-10-16T05:03:01.164Z,9.60
2018-10-16T05:05:30.046Z,9.60
2018-10-16T05:07:58.886Z,9.60
2018-10-16T05:10:27.724Z,9.60
2018-10-16T05:12:56.696Z,9.60
2018-10-16T05:15:27.710Z,9.70
2018-10-16T05:17:56.829Z,9.70
2018-10-16T05:20:25.615Z,9.70
2018-10-16T05:25:34.228Z,9.70
2018-10-16T05:28:03.062Z,9.70
2018-10-16T05:30:31.911Z,9.60
2018-10-16T05:33:00.823Z,9.60
2018-10-16T05:35:29.631Z,9.60
2018-10-16T05:38:03.000Z,9.60
2018-10-16T05:40:31.947Z,9.60
2018-10-16T05:43:06.373Z,9.60
2018-10-16T05:45:51.812Z,9.60
2018-10-16T05:48:20.652Z,9.60
2018-10-16T05:50:49.623Z,9.60
2018-10-16T05:53:18.563Z,9.50
2018-10-16T05:55:59.432Z,9.50
2018-10-16T05:58:28.246Z,9.40
2018-10-16T06:00:57.130Z,9.40
2018-10-16T06:03:26.033Z,9.40
2018-10-16T06:05:54.834Z,9.50
2018-10-16T06:08:23.639Z,9.50
2018-10-16T06:11:07.035Z,9.50
2018-10-16T06:13:35.922Z,9.60
2018-10-16T06:16:04.909Z,9.50
2018-10-16T06:18:33.675Z,9.50
2018-10-16T06:21:02.505Z,9.60
2018-10-16T06:23:32.450Z,9.60
2018-10-16T06:26:01.279Z,9.60
2018-10-16T06:28:30.115Z,9.70
2018-10-16T06:30:58.999Z,9.70
2018-10-16T06:33:29.342Z,9.70
2018-10-16T06:36:12.695Z,9.80
2018-10-16T06:38:48.091Z,9.80
2018-10-16T06:41:22.747Z,9.80
2018-10-16T06:44:04.712Z,9.80
2018-10-16T06:46:39.650Z,9.90
2018-10-16T06:49:09.466Z,9.80
2018-10-16T06:51:53.779Z,9.80
2018-10-16T06:54:22.655Z,9.80
2018-10-16T06:56:56.463Z,9.90
2018-10-16T06:59:26.043Z,9.80
2018-10-16T07:01:54.867Z,9.80
2018-10-16T07:04:36.055Z,9.90
2018-10-16T07:07:05.263Z,9.90
2018-10-16T07:09:34.058Z,9.90
2018-10-16T07:12:02.874Z,10.00
2018-10-16T07:14:31.698Z,10.10
2018-10-16T07:17:00.514Z,10.10
2018-10-16T07:19:29.334Z,10.20
2018-10-16T07:21:58.442Z,10.20
2018-10-16T07:24:34.742Z,10.20
2018-10-16T07:27:03.611Z,10.30
2018-10-16T07:29:32.456Z,10.40
2018-10-16T07:32:01.284Z,10.40
2018-10-16T07:34:37.088Z,10.50
2018-10-16T07:37:06.080Z,10.50
2018-10-16T07:39:34.930Z,10.60
2018-10-16T07:42:12.430Z,10.60
2018-10-16T07:44:41.262Z,10.70
2018-10-16T07:47:10.144Z,10.70
2018-10-16T07:49:38.958Z,10.80
2018-10-16T07:52:07.828Z,10.80
2018-10-16T07:54:36.759Z,10.90
2018-10-16T07:57:06.836Z,11.00
2018-10-16T07:59:35.587Z,11.00
2018-10-16T08:02:04.468Z,11.10
2018-10-16T08:04:33.258Z,11.10
2018-10-16T08:07:02.028Z,11.20
2018-10-16T08:09:48.334Z,11.20
2018-10-16T08:12:17.150Z,11.30
2018-10-16T08:14:45.972Z,11.40
2018-10-16T08:17:21.308Z,11.50
2018-10-16T08:19:50.067Z,11.60
2018-10-16T08:22:19.972Z,11.70
2018-10-16T08:24:48.930Z,11.80
2018-10-16T08:27:17.738Z,11.90
2018-10-16T08:30:02.272Z,12.00
2018-10-16T08:32:30.982Z,12.10
2018-10-16T08:34:59.738Z,12.20
2018-10-16T08:40:34.294Z,12.50
2018-10-16T08:43:27.977Z,12.70
2018-10-16T08:46:17.796Z,12.90
2018-10-16T08:48:58.417Z,13.10
2018-10-16T08:51:49.364Z,13.30
2018-10-16T08:54:18.367Z,13.50
2018-10-16T08:56:47.159Z,13.60
2018-10-16T08:59:18.113Z,13.70
2018-10-16T09:01:47.075Z,13.80
2018-10-16T09:04:17.935Z,13.90
2018-10-16T09:06:46.872Z,14.00
2018-10-16T09:09:16.918Z,14.10
2018-10-16T09:11:47.082Z,14.20
2018-10-16T09:14:16.527Z,14.30
2018-10-16T09:16:45.351Z,14.40
2018-10-16T09:19:14.202Z,14.50
2018-10-16T09:21:43.099Z,14.60
2018-10-16T09:27:06.730Z,14.80
2018-10-16T09:29:35.594Z,14.90
2018-10-16T09:32:04.657Z,15.00
2018-10-16T09:34:33.450Z,15.10
2018-10-16T09:39:53.383Z,15.20
2018-10-16T09:42:22.210Z,15.30
2018-10-16T09:44:51.098Z,15.30
2018-10-16T09:47:28.753Z,15.40
2018-10-16T09:49:57.579Z,15.50
2018-10-16T09:52:26.423Z,15.50
2018-10-16T09:54:55.294Z,15.50
2018-10-16T09:57:24.087Z,15.60
2018-10-16T09:59:52.879Z,15.70
2018-10-16T10:02:21.723Z,15.80
2018-10-16T10:04:50.555Z,15.80
2018-10-16T10:07:19.387Z,15.90
2018-10-16T10:09:48.183Z,16.00
2018-10-16T10:12:17.141Z,16.10
2018-10-16T10:14:47.996Z,16.10
2018-10-16T10:17:16.803Z,16.10
2018-10-16T10:19:45.619Z,16.20
2018-10-16T10:22:14.467Z,16.20
2018-10-16T10:24:43.290Z,16.30
2018-10-16T10:27:18.830Z,16.30
2018-10-16T10:29:47.715Z,16.40
2018-10-16T10:32:16.458Z,16.50
2018-10-16T10:34:45.265Z,16.50
2018-10-16T10:37:14.116Z,16.50
2018-10-16T10:39:42.927Z,16.70
2018-10-16T10:42:11.861Z,16.70
2018-10-16T10:44:40.694Z,16.80
2018-10-16T10:47:09.554Z,16.80
2018-10-16T10:49:51.103Z,16.90
2018-10-16T10:52:19.819Z,17.00
2018-10-16T10:54:48.657Z,17.10
2018-10-16T10:57:17.540Z,17.10
2018-10-16T10:59:46.374Z,17.20
2018-10-16T11:02:15.094Z,17.30
2018-10-16T11:04:43.828Z,17.40
2018-10-16T11:07:12.549Z,17.50
2018-10-16T11:09:43.296Z,17.60
2018-10-16T11:12:12.022Z,17.70
2018-10-16T11:14:40.758Z,17.70
2018-10-16T11:17:10.478Z,17.90
2018-10-16T11:19:39.186Z,18.00
2018-10-16T11:22:07.939Z,18.00
2018-10-16T11:24:54.654Z,18.10
2018-10-16T11:27:23.386Z,18.20
2018-10-16T11:29:52.101Z,18.30
2018-10-16T11:32:20.871Z,18.30
2018-10-16T11:34:49.603Z,18.40
2018-10-16T11:37:18.331Z,18.60
2018-10-16T11:39:47.067Z,18.70
2018-10-16T11:42:33.417Z,18.90
2018-10-16T11:45:02.358Z,19.10
2018-10-16T11:47:31.022Z,19.30
2018-10-16T11:49:59.791Z,19.50
2018-10-16T11:52:28.458Z,19.60
2018-10-16T11:54:57.173Z,19.80
2018-10-16T11:57:25.900Z,20.00
2018-10-16T11:59:54.650Z,20.20
2018-10-16T12:02:34.406Z,20.30
2018-10-16T12:05:03.124Z,20.30
2018-10-16T12:07:31.850Z,20.60
2018-10-16T12:10:00.570Z,20.70
2018-10-16T12:12:29.293Z,20.80
2018-10-16T12:14:58.053Z,20.80
2018-10-16T12:17:30.649Z,20.80
2018-10-16T12:20:06.599Z,20.90
2018-10-16T12:22:35.219Z,20.90
2018-10-16T12:25:16.407Z,21.10
2018-10-16T12:27:45.050Z,21.20
2018-10-16T12:30:13.794Z,21.20
2018-10-16T12:32:42.502Z,21.20
2018-10-16T12:35:18.021Z,21.20
2018-10-16T12:37:46.786Z,21.30
2018-10-16T12:40:15.635Z,21.30
2018-10-16T12:42:46.441Z,21.30
2018-10-16T12:45:15.289Z,21.30
2018-10-16T12:47:43.890Z,21.30
2018-10-16T12:50:18.848Z,21.30
2018-10-16T12:52:47.506Z,21.30
2018-10-16T12:55:17.246Z,21.30
2018-10-16T12:57:45.966Z,21.30
2018-10-16T13:00:14.776Z,21.50
2018-10-16T13:02:43.410Z,21.50
2018-10-16T13:05:12.175Z,21.80
2018-10-16T13:07:40.894Z,22.00
2018-10-16T13:10:30.586Z,22.20
2018-10-16T13:12:59.295Z,22.30
2018-10-16T13:15:28.022Z,22.40
2018-10-16T13:17:56.733Z,22.50
2018-10-16T13:20:25.477Z,22.60
2018-10-16T13:23:07.749Z,22.70
2018-10-16T13:25:36.386Z,22.80
2018-10-16T13:28:05.148Z,22.70
2018-10-16T13:30:33.840Z,22.70
2018-10-16T13:33:02.542Z,22.60
2018-10-16T13:35:32.339Z,22.60
2018-10-16T13:38:01.114Z,22.60
2018-10-16T13:40:29.765Z,22.60
2018-10-16T13:42:58.596Z,22.50
2018-10-16T13:45:27.431Z,22.50
2018-10-16T13:47:56.153Z,22.50
2018-10-16T13:50:25.263Z,22.60
2018-10-16T13:52:53.970Z,22.60
2018-10-16T13:55:22.698Z,22.60
2018-10-16T13:57:51.403Z,22.60
2018-10-16T14:00:20.953Z,22.70
2018-10-16T14:02:50.969Z,22.80
2018-10-16T14:05:19.730Z,22.90
2018-10-16T14:07:48.554Z,23.00
2018-10-16T14:10:17.927Z,23.10
2018-10-16T14:12:47.894Z,23.10
2018-10-16T14:15:17.216Z,23.20
2018-10-16T14:17:47.149Z,23.20
2018-10-16T14:20:15.936Z,23.20
2018-10-16T14:22:44.638Z,23.30
2018-10-16T14:25:25.799Z,23.20
2018-10-16T14:27:54.492Z,23.20
2018-10-16T14:30:23.234Z,23.10
2018-10-16T14:35:43.197Z,22.80
2018-10-16T14:38:17.138Z,22.70
2018-10-16T14:40:45.791Z,22.60
2018-10-16T14:43:14.498Z,22.50
2018-10-16T14:45:50.980Z,22.40
2018-10-16T14:48:19.682Z,22.30
2018-10-16T14:50:48.416Z,22.20
2018-10-16T14:53:17.145Z,22.20
2018-10-16T14:55:45.865Z,22.10
2018-10-16T14:58:26.254Z,22.00
2018-10-16T15:00:55.117Z,21.90
2018-10-16T15:03:23.824Z,21.90
2018-10-16T15:06:04.505Z,21.90
2018-10-16T15:08:33.210Z,21.80
2018-10-16T15:11:08.741Z,21.80
2018-10-16T15:13:37.453Z,21.70
2018-10-16T15:16:06.382Z,21.70
2018-10-16T15:24:25.158Z,21.50
2018-10-16T15:26:53.858Z,21.50
2018-10-16T15:29:22.588Z,21.40
2018-10-16T15:31:51.320Z,21.40
2018-10-16T15:34:20.026Z,21.40
2018-10-16T15:36:48.731Z,21.30
2018-10-16T15:39:17.481Z,21.30
2018-10-16T15:41:46.210Z,21.30
2018-10-16T15:44:15.015Z,21.30
2018-10-16T15:46:43.650Z,21.20
2018-10-16T15:49:12.485Z,21.20
2018-10-16T15:51:41.165Z,21.20
2018-10-16T15:54:09.896Z,21.20
2018-10-16T15:56:38.580Z,21.20
2018-10-16T15:59:07.289Z,21.10
2018-10-16T16:04:27.318Z,21.10
2018-10-16T16:06:56.045Z,21.00
2018-10-16T16:09:24.741Z,21.00
2018-10-16T16:12:06.026Z,20.90
2018-10-16T16:14:35.498Z,20.90
2018-10-16T16:17:18.807Z,20.80
2018-10-16T16:19:47.681Z,20.70
2018-10-16T16:22:16.502Z,20.60
2018-10-16T16:24:51.782Z,20.50
2018-10-16T16:27:20.497Z,20.50
2018-10-16T16:29:49.189Z,20.40
2018-10-16T16:32:32.517Z,20.30
2018-10-16T16:35:01.288Z,20.20
2018-10-16T16:37:29.921Z,20.10
2018-10-16T16:39:58.666Z,20.10
2018-10-16T16:42:27.322Z,20.00
2018-10-16T16:44:56.021Z,20.00
2018-10-16T16:50:23.470Z,19.80
2018-10-16T16:52:52.261Z,19.80
2018-10-16T16:55:20.928Z,19.70
2018-10-16T16:58:01.562Z,19.70
2018-10-16T17:00:30.250Z,19.60
2018-10-16T17:03:13.365Z,19.60
2018-10-16T17:05:44.141Z,19.50
2018-10-16T17:08:12.955Z,19.50
2018-10-16T17:10:41.570Z,19.40
2018-10-16T17:13:10.281Z,19.40
2018-10-16T17:15:47.577Z,19.30
2018-10-16T17:18:16.369Z,19.30
2018-10-16T17:20:52.833Z,19.20
2018-10-16T17:23:27.554Z,19.20
2018-10-16T17:25:56.683Z,19.20
2018-10-16T17:28:25.013Z,19.10
2018-10-16T17:31:03.442Z,19.10
2018-10-16T17:33:32.158Z,19.00
2018-10-16T17:36:00.874Z,19.00
2018-10-16T17:38:29.574Z,19.00
2018-10-16T17:40:58.282Z,18.90
2018-10-16T17:43:35.906Z,18.90
2018-10-16T17:46:04.703Z,18.90
2018-10-16T17:48:33.577Z,18.90
2018-10-16T17:51:02.322Z,18.80
2018-10-16T17:53:31.038Z,18.80
2018-10-16T17:55:59.709Z,18.70
2018-10-16T17:58:28.447Z,18.70
2018-10-16T18:00:57.146Z,18.60
2018-10-16T18:03:25.869Z,18.60
2018-10-16T18:05:56.645Z,18.50
2018-10-16T18:08:25.398Z,18.50
2018-10-16T18:10:54.163Z,18.40
2018-10-16T18:13:22.860Z,18.40
2018-10-16T18:15:51.587Z,18.30
2018-10-16T18:18:20.408Z,18.30
2018-10-16T18:20:49.022Z,18.20
2018-10-16T18:23:17.713Z,18.20
2018-10-16T18:25:46.413Z,18.10
2018-10-16T18:28:15.146Z,18.00
2018-10-16T18:30:43.852Z,17.90
2018-10-16T18:33:12.644Z,17.90
2018-10-16T18:35:41.294Z,17.80
2018-10-16T18:38:09.993Z,17.80
2018-10-16T18:40:38.745Z,17.70
2018-10-16T18:43:07.450Z,17.70
2018-10-16T18:48:27.319Z,17.70
2018-10-16T18:50:56.019Z,17.70
2018-10-16T18:53:24.726Z,17.60
2018-10-16T18:55:53.490Z,17.60
2018-10-16T18:58:22.247Z,17.60
2018-10-16T19:00:51.121Z,17.60
2018-10-16T19:03:19.874Z,17.50
2018-10-16T19:05:48.607Z,17.50
2018-10-16T19:08:17.330Z,17.50
2018-10-16T19:10:51.132Z,17.40
2018-10-16T19:13:19.884Z,17.40
2018-10-16T19:15:48.620Z,17.30
2018-10-16T19:18:17.326Z,17.30
2018-10-16T19:20:46.079Z,17.20
2018-10-16T19:23:19.874Z,17.20
2018-10-16T19:25:48.707Z,17.10
2018-10-16T19:28:17.518Z,17.10
2018-10-16T19:30:46.301Z,17.00
2018-10-16T19:33:15.328Z,17.00
2018-10-16T19:35:44.108Z,17.00
2018-10-16T19:38:12.994Z,16.90
2018-10-16T19:40:41.785Z,16.90
2018-10-16T19:43:10.602Z,16.90
2018-10-16T19:45:39.559Z,16.80
2018-10-16T19:51:00.024Z,16.80
2018-10-16T19:53:28.894Z,16.70
2018-10-16T19:55:57.609Z,16.60
2018-10-16T19:58:26.321Z,16.60
2018-10-16T20:00:55.022Z,16.60
2018-10-16T20:03:23.725Z,16.50
2018-10-16T20:05:52.453Z,16.50
2018-10-16T20:08:21.158Z,16.50
2018-10-16T20:10:50.006Z,16.40
2018-10-16T20:13:18.707Z,16.40
2018-10-16T20:15:47.538Z,16.30
2018-10-16T20:18:16.114Z,16.30
2018-10-16T20:23:37.150Z,16.20
2018-10-16T20:26:06.259Z,16.10
2018-10-16T20:28:34.962Z,16.00
2018-10-16T20:31:03.733Z,16.00
2018-10-16T20:33:32.353Z,16.00
2018-10-16T20:36:01.068Z,15.90
2018-10-16T20:38:29.822Z,15.90
2018-10-16T20:40:58.533Z,15.90
2018-10-16T20:43:27.246Z,15.90
2018-10-16T20:45:55.961Z,15.90
2018-10-16T20:48:24.689Z,15.80
2018-10-16T20:50:53.381Z,15.80
2018-10-16T20:53:22.077Z,15.70
2018-10-16T20:55:50.793Z,15.60
2018-10-16T20:58:19.577Z,15.50
2018-10-16T21:00:48.945Z,15.40
2018-10-16T21:03:17.642Z,15.30
2018-10-16T21:05:46.467Z,15.30
2018-10-16T21:08:15.049Z,15.20
2018-10-16T21:10:43.757Z,15.20
2018-10-16T21:13:12.533Z,15.20
2018-10-16T21:15:41.193Z,15.20
2018-10-16T21:18:09.901Z,15.10
2018-10-16T21:20:38.642Z,15.10
2018-10-16T21:23:07.365Z,15.10
2018-10-16T21:25:36.081Z,15.10
2018-10-16T21:28:04.789Z,15.00
2018-10-16T21:30:33.477Z,14.90
2018-10-16T21:33:02.193Z,14.60
2018-10-16T21:35:30.894Z,14.40
2018-10-16T21:37:59.609Z,14.30
2018-10-16T21:40:28.313Z,14.30
2018-10-16T21:42:57.056Z,14.30
2018-10-16T21:45:25.776Z,14.30
2018-10-16T21:47:54.450Z,14.30
2018-10-16T21:50:23.137Z,14.30
2018-10-16T21:52:51.868Z,14.30
2018-10-16T21:55:20.534Z,14.30
2018-10-16T21:57:49.312Z,14.30
2018-10-16T22:00:23.498Z,14.30
2018-10-16T22:02:52.214Z,14.30
2018-10-16T22:05:22.481Z,14.20
2018-10-16T22:07:52.957Z,14.30
2018-10-16T22:10:22.197Z,14.30
2018-10-16T22:12:51.274Z,14.30
2018-10-16T22:15:20.716Z,14.20
2018-10-16T22:17:49.781Z,14.20
2018-10-16T22:20:18.509Z,14.20
2018-10-16T22:22:47.357Z,14.20
2018-10-16T22:25:16.232Z,14.20
2018-10-16T22:27:44.853Z,14.20
2018-10-16T22:30:13.549Z,14.10
2018-10-16T22:32:42.261Z,14.00
2018-10-16T22:35:11.677Z,13.90
2018-10-16T22:37:40.303Z,13.90
2018-10-16T22:40:09.791Z,13.90
2018-10-16T22:42:38.610Z,13.90
2018-10-16T22:45:07.865Z,13.90
2018-10-16T22:47:36.614Z,13.90
2018-10-16T22:50:08.293Z,13.90
2018-10-16T22:52:37.002Z,13.80
2018-10-16T22:55:06.510Z,13.80
2018-10-16T22:57:35.197Z,13.80
2018-10-16T23:00:04.459Z,13.80
2018-10-16T23:02:33.162Z,13.70
2018-10-16T23:05:01.912Z,13.70
2018-10-16T23:07:30.565Z,13.70
2018-10-16T23:09:59.267Z,13.60
2018-10-16T23:12:27.981Z,13.60
2018-10-16T23:14:56.682Z,13.60
2018-10-16T23:17:25.385Z,13.50
2018-10-16T23:19:54.081Z,13.50
2018-10-16T23:22:22.792Z,13.50
2018-10-16T23:24:51.512Z,13.40
2018-10-16T23:27:20.194Z,13.40
2018-10-16T23:29:48.906Z,13.40
2018-10-16T23:32:17.613Z,13.40
2018-10-16T23:34:46.305Z,13.30
2018-10-16T23:37:15.101Z,13.30
2018-10-16T23:39:43.713Z,13.30
2018-10-16T23:42:12.409Z,13.20
2018-10-16T23:44:41.149Z,13.30
2018-10-16T23:47:10.001Z,13.20
2018-10-16T23:49:38.641Z,13.20
2018-10-16T23:52:07.353Z,13.20
2018-10-16T23:54:36.057Z,13.20
2018-10-16T23:57:04.765Z,13.10
2018-10-16T23:59:33.477Z,13.10
